Terminal Aerodrome Forecast
Issued by NWS Wilmington, OH

Current Version | Previous Version | Graphics & Text | Print | Product List | Glossary On
Versions: 1 2 3 4 5 6 7 8 9 10 11 12 13 14 15 16 17 18 19 20 21 22 23 24 25
000
FTUS41 KILN 211100
TAFILN
TAF
KILN 211134Z 2112/2212 24012G20KT P6SM OVC020
     FM211500 27014G24KT P6SM SCT040
     FM212000 28016G26KT P6SM BKN040
     FM220100 31014KT P6SM OVC022=

USA.gov is the U.S. government's official web portal to all federal, state and local government web resources and services.